sensor_id;sensor_type;location;lat;lon;timestamp;P1;durP1;ratioP1;P2;durP2;ratioP2
4053;SDS011;2042;47.956;9.222;2024-03-08T00:00:43;17.30;;;11.97;;
4053;SDS011;2042;47.956;9.222;2024-03-08T00:03:08;20.80;;;13.20;;
4053;SDS011;2042;47.956;9.222;2024-03-08T00:05:35;16.30;;;10.17;;
4053;SDS011;2042;47.956;9.222;2024-03-08T00:08:03;19.33;;;12.20;;
4053;SDS011;2042;47.956;9.222;2024-03-08T00:10:30;14.23;;;9.00;;
4053;SDS011;2042;47.956;9.222;2024-03-08T00:12:55;17.10;;;11.03;;
4053;SDS011;2042;47.956;9.222;2024-03-08T00:15:22;13.47;;;9.20;;
4053;SDS011;2042;47.956;9.222;2024-03-08T00:17:48;19.70;;;9.87;;
4053;SDS011;2042;47.956;9.222;2024-03-08T00:20:14;17.27;;;10.20;;
4053;SDS011;2042;47.956;9.222;2024-03-08T00:22:42;18.47;;;12.10;;
4053;SDS011;2042;47.956;9.222;2024-03-08T00:25:08;14.63;;;9.70;;
4053;SDS011;2042;47.956;9.222;2024-03-08T00:27:34;15.03;;;10.00;;
4053;SDS011;2042;47.956;9.222;2024-03-08T00:30:00;16.10;;;9.70;;
4053;SDS011;2042;47.956;9.222;2024-03-08T00:32:26;16.37;;;10.63;;
4053;SDS011;2042;47.956;9.222;2024-03-08T00:34:52;18.10;;;11.47;;
4053;SDS011;2042;47.956;9.222;2024-03-08T00:37:19;16.80;;;10.50;;
4053;SDS011;2042;47.956;9.222;2024-03-08T00:39:47;15.77;;;10.40;;
4053;SDS011;2042;47.956;9.222;2024-03-08T00:42:16;12.37;;;8.77;;
4053;SDS011;2042;47.956;9.222;2024-03-08T00:44:45;18.17;;;10.70;;
4053;SDS011;2042;47.956;9.222;2024-03-08T00:47:11;16.23;;;10.10;;
4053;SDS011;2042;47.956;9.222;2024-03-08T00:49:37;16.10;;;10.40;;
4053;SDS011;2042;47.956;9.222;2024-03-08T00:52:03;18.37;;;9.73;;
4053;SDS011;2042;47.956;9.222;2024-03-08T00:54:33;14.80;;;10.03;;
4053;SDS011;2042;47.956;9.222;2024-03-08T00:57:01;15.80;;;9.70;;
4053;SDS011;2042;47.956;9.222;2024-03-08T00:59:28;14.33;;;8.87;;
4053;SDS011;2042;47.956;9.222;2024-03-08T01:01:58;18.03;;;10.07;;
4053;SDS011;2042;47.956;9.222;2024-03-08T01:04:25;17.30;;;9.63;;
4053;SDS011;2042;47.956;9.222;2024-03-08T01:06:54;15.90;;;9.93;;
4053;SDS011;2042;47.956;9.222;2024-03-08T01:09:21;18.60;;;10.73;;
4053;SDS011;2042;47.956;9.222;2024-03-08T01:11:47;15.87;;;9.50;;
4053;SDS011;2042;47.956;9.222;2024-03-08T01:14:13;23.53;;;11.40;;
4053;SDS011;2042;47.956;9.222;2024-03-08T01:16:38;15.90;;;9.77;;
4053;SDS011;2042;47.956;9.222;2024-03-08T01:19:04;16.03;;;9.90;;
4053;SDS011;2042;47.956;9.222;2024-03-08T01:21:30;19.50;;;12.70;;
4053;SDS011;2042;47.956;9.222;2024-03-08T01:23:56;17.93;;;11.10;;
4053;SDS011;2042;47.956;9.222;2024-03-08T01:26:21;17.10;;;9.90;;
4053;SDS011;2042;47.956;9.222;2024-03-08T01:28:47;17.83;;;11.43;;
4053;SDS011;2042;47.956;9.222;2024-03-08T01:31:12;20.97;;;12.87;;
4053;SDS011;2042;47.956;9.222;2024-03-08T01:33:38;18.60;;;11.53;;
4053;SDS011;2042;47.956;9.222;2024-03-08T01:36:05;18.47;;;11.20;;
4053;SDS011;2042;47.956;9.222;2024-03-08T01:38:31;20.77;;;10.70;;
4053;SDS011;2042;47.956;9.222;2024-03-08T01:40:56;17.03;;;10.17;;
4053;SDS011;2042;47.956;9.222;2024-03-08T01:43:24;16.43;;;10.50;;
4053;SDS011;2042;47.956;9.222;2024-03-08T01:45:54;17.13;;;10.43;;
4053;SDS011;2042;47.956;9.222;2024-03-08T01:48:29;24.40;;;12.67;;
4053;SDS011;2042;47.956;9.222;2024-03-08T01:50:56;19.33;;;11.90;;
4053;SDS011;2042;47.956;9.222;2024-03-08T01:53:23;14.70;;;10.03;;
4053;SDS011;2042;47.956;9.222;2024-03-08T01:55:50;16.93;;;10.80;;
4053;SDS011;2042;47.956;9.222;2024-03-08T01:58:19;26.10;;;11.90;;
4053;SDS011;2042;47.956;9.222;2024-03-08T02:00:47;17.67;;;11.90;;
4053;SDS011;2042;47.956;9.222;2024-03-08T02:03:14;20.13;;;12.63;;
4053;SDS011;2042;47.956;9.222;2024-03-08T02:05:41;15.10;;;8.47;;
4053;SDS011;2042;47.956;9.222;2024-03-08T02:08:07;19.77;;;11.33;;
4053;SDS011;2042;47.956;9.222;2024-03-08T02:10:37;17.37;;;11.43;;
4053;SDS011;2042;47.956;9.222;2024-03-08T02:13:03;17.93;;;10.47;;
4053;SDS011;2042;47.956;9.222;2024-03-08T02:18:21;18.20;;;13.00;;
4053;SDS011;2042;47.956;9.222;2024-03-08T02:20:51;21.83;;;11.97;;
4053;SDS011;2042;47.956;9.222;2024-03-08T02:23:20;18.27;;;12.57;;
4053;SDS011;2042;47.956;9.222;2024-03-08T02:25:47;19.57;;;12.93;;
4053;SDS011;2042;47.956;9.222;2024-03-08T02:28:14;19.20;;;10.90;;
4053;SDS011;2042;47.956;9.222;2024-03-08T02:30:40;22.87;;;12.43;;
4053;SDS011;2042;47.956;9.222;2024-03-08T02:33:06;19.80;;;13.80;;
4053;SDS011;2042;47.956;9.222;2024-03-08T02:35:32;19.07;;;12.67;;
4053;SDS011;2042;47.956;9.222;2024-03-08T02:37:59;19.40;;;11.87;;
4053;SDS011;2042;47.956;9.222;2024-03-08T02:40:24;19.77;;;13.13;;
4053;SDS011;2042;47.956;9.222;2024-03-08T02:42:50;20.20;;;14.17;;
4053;SDS011;2042;47.956;9.222;2024-03-08T02:45:16;17.50;;;11.73;;
4053;SDS011;2042;47.956;9.222;2024-03-08T02:47:42;20.10;;;13.10;;
4053;SDS011;2042;47.956;9.222;2024-03-08T02:50:08;21.77;;;12.97;;
4053;SDS011;2042;47.956;9.222;2024-03-08T02:52:34;21.07;;;12.50;;
4053;SDS011;2042;47.956;9.222;2024-03-08T02:55:03;20.73;;;13.00;;
4053;SDS011;2042;47.956;9.222;2024-03-08T02:57:31;15.97;;;10.70;;
4053;SDS011;2042;47.956;9.222;2024-03-08T02:59:57;23.37;;;12.80;;
4053;SDS011;2042;47.956;9.222;2024-03-08T03:02:25;22.70;;;13.53;;
4053;SDS011;2042;47.956;9.222;2024-03-08T03:04:51;23.47;;;13.00;;
4053;SDS011;2042;47.956;9.222;2024-03-08T03:07:17;21.50;;;13.10;;
4053;SDS011;2042;47.956;9.222;2024-03-08T03:09:43;22.70;;;12.03;;
4053;SDS011;2042;47.956;9.222;2024-03-08T03:12:09;21.20;;;14.10;;
4053;SDS011;2042;47.956;9.222;2024-03-08T03:14:37;16.47;;;10.93;;
4053;SDS011;2042;47.956;9.222;2024-03-08T03:17:03;21.53;;;12.77;;
4053;SDS011;2042;47.956;9.222;2024-03-08T03:19:30;20.50;;;14.83;;
4053;SDS011;2042;47.956;9.222;2024-03-08T03:21:55;16.93;;;12.03;;
4053;SDS011;2042;47.956;9.222;2024-03-08T03:24:22;19.10;;;12.23;;
4053;SDS011;2042;47.956;9.222;2024-03-08T03:26:48;22.20;;;12.67;;
4053;SDS011;2042;47.956;9.222;2024-03-08T03:29:15;19.13;;;10.83;;
4053;SDS011;2042;47.956;9.222;2024-03-08T03:31:42;22.23;;;13.17;;
4053;SDS011;2042;47.956;9.222;2024-03-08T03:34:10;22.70;;;13.60;;
4053;SDS011;2042;47.956;9.222;2024-03-08T03:36:37;21.50;;;12.80;;
4053;SDS011;2042;47.956;9.222;2024-03-08T03:39:07;21.07;;;12.73;;
4053;SDS011;2042;47.956;9.222;2024-03-08T03:41:41;23.30;;;15.07;;
4053;SDS011;2042;47.956;9.222;2024-03-08T03:44:09;24.23;;;14.77;;
4053;SDS011;2042;47.956;9.222;2024-03-08T03:46:35;19.03;;;11.97;;
4053;SDS011;2042;47.956;9.222;2024-03-08T03:49:00;24.07;;;12.97;;
4053;SDS011;2042;47.956;9.222;2024-03-08T03:51:26;23.90;;;12.37;;
4053;SDS011;2042;47.956;9.222;2024-03-08T03:53:52;24.37;;;15.27;;
4053;SDS011;2042;47.956;9.222;2024-03-08T03:56:18;20.70;;;12.77;;
4053;SDS011;2042;47.956;9.222;2024-03-08T03:58:44;21.20;;;14.23;;
4053;SDS011;2042;47.956;9.222;2024-03-08T04:01:10;19.67;;;12.67;;
4053;SDS011;2042;47.956;9.222;2024-03-08T04:03:36;21.13;;;14.20;;
4053;SDS011;2042;47.956;9.222;2024-03-08T04:06:03;18.93;;;12.87;;
4053;SDS011;2042;47.956;9.222;2024-03-08T04:08:31;24.70;;;13.33;;
4053;SDS011;2042;47.956;9.222;2024-03-08T04:10:59;20.50;;;13.00;;
4053;SDS011;2042;47.956;9.222;2024-03-08T04:13:25;22.20;;;13.07;;
4053;SDS011;2042;47.956;9.222;2024-03-08T04:15:51;22.07;;;12.87;;
4053;SDS011;2042;47.956;9.222;2024-03-08T04:18:17;19.40;;;13.50;;
4053;SDS011;2042;47.956;9.222;2024-03-08T04:20:44;20.67;;;12.83;;
4053;SDS011;2042;47.956;9.222;2024-03-08T04:23:09;19.83;;;13.00;;
4053;SDS011;2042;47.956;9.222;2024-03-08T04:25:36;21.37;;;12.23;;
4053;SDS011;2042;47.956;9.222;2024-03-08T04:28:02;20.93;;;11.57;;
4053;SDS011;2042;47.956;9.222;2024-03-08T04:30:28;25.90;;;13.53;;
4053;SDS011;2042;47.956;9.222;2024-03-08T04:32:55;24.63;;;14.70;;
4053;SDS011;2042;47.956;9.222;2024-03-08T04:35:20;22.77;;;12.97;;
4053;SDS011;2042;47.956;9.222;2024-03-08T04:37:46;22.50;;;11.90;;
4053;SDS011;2042;47.956;9.222;2024-03-08T04:40:12;25.40;;;15.97;;
4053;SDS011;2042;47.956;9.222;2024-03-08T04:42:38;18.90;;;11.10;;
4053;SDS011;2042;47.956;9.222;2024-03-08T04:45:05;20.33;;;12.00;;
4053;SDS011;2042;47.956;9.222;2024-03-08T04:47:33;21.10;;;13.00;;
4053;SDS011;2042;47.956;9.222;2024-03-08T04:50:01;20.37;;;12.10;;
4053;SDS011;2042;47.956;9.222;2024-03-08T04:52:27;19.10;;;10.00;;
4053;SDS011;2042;47.956;9.222;2024-03-08T04:54:53;18.10;;;10.60;;
4053;SDS011;2042;47.956;9.222;2024-03-08T04:57:19;19.37;;;10.90;;
4053;SDS011;2042;47.956;9.222;2024-03-08T04:59:45;18.37;;;9.70;;
4053;SDS011;2042;47.956;9.222;2024-03-08T05:02:11;18.07;;;11.20;;
4053;SDS011;2042;47.956;9.222;2024-03-08T05:04:37;21.23;;;13.43;;
4053;SDS011;2042;47.956;9.222;2024-03-08T05:07:02;19.00;;;11.63;;
4053;SDS011;2042;47.956;9.222;2024-03-08T05:09:29;22.87;;;12.77;;
4053;SDS011;2042;47.956;9.222;2024-03-08T05:11:56;29.00;;;14.57;;
4053;SDS011;2042;47.956;9.222;2024-03-08T05:14:24;18.80;;;12.10;;
4053;SDS011;2042;47.956;9.222;2024-03-08T05:16:50;22.17;;;13.00;;
4053;SDS011;2042;47.956;9.222;2024-03-08T05:19:16;24.53;;;13.33;;
4053;SDS011;2042;47.956;9.222;2024-03-08T05:21:44;25.10;;;11.90;;
4053;SDS011;2042;47.956;9.222;2024-03-08T05:24:14;18.00;;;10.57;;
4053;SDS011;2042;47.956;9.222;2024-03-08T05:26:40;22.73;;;11.87;;
4053;SDS011;2042;47.956;9.222;2024-03-08T05:29:07;23.67;;;13.40;;
4053;SDS011;2042;47.956;9.222;2024-03-08T05:31:52;17.30;;;11.40;;
4053;SDS011;2042;47.956;9.222;2024-03-08T05:34:17;18.97;;;10.27;;
4053;SDS011;2042;47.956;9.222;2024-03-08T05:36:44;17.20;;;10.67;;
4053;SDS011;2042;47.956;9.222;2024-03-08T05:39:12;22.20;;;13.20;;
4053;SDS011;2042;47.956;9.222;2024-03-08T05:41:38;25.90;;;14.23;;
4053;SDS011;2042;47.956;9.222;2024-03-08T05:44:05;19.13;;;12.57;;
4053;SDS011;2042;47.956;9.222;2024-03-08T05:46:31;24.17;;;12.70;;
4053;SDS011;2042;47.956;9.222;2024-03-08T05:48:57;22.93;;;13.13;;
4053;SDS011;2042;47.956;9.222;2024-03-08T05:51:24;22.63;;;13.30;;
4053;SDS011;2042;47.956;9.222;2024-03-08T05:53:52;23.30;;;12.23;;
4053;SDS011;2042;47.956;9.222;2024-03-08T05:56:18;25.03;;;12.90;;
4053;SDS011;2042;47.956;9.222;2024-03-08T05:58:45;27.07;;;15.40;;
4053;SDS011;2042;47.956;9.222;2024-03-08T06:01:10;29.13;;;15.93;;
4053;SDS011;2042;47.956;9.222;2024-03-08T06:03:37;30.23;;;15.33;;
4053;SDS011;2042;47.956;9.222;2024-03-08T06:06:13;29.70;;;16.30;;
4053;SDS011;2042;47.956;9.222;2024-03-08T06:08:39;28.77;;;14.97;;
4053;SDS011;2042;47.956;9.222;2024-03-08T06:11:07;35.90;;;17.50;;
4053;SDS011;2042;47.956;9.222;2024-03-08T06:13:33;32.53;;;14.93;;
4053;SDS011;2042;47.956;9.222;2024-03-08T06:16:00;31.27;;;15.80;;
4053;SDS011;2042;47.956;9.222;2024-03-08T06:18:29;29.43;;;14.70;;
4053;SDS011;2042;47.956;9.222;2024-03-08T06:20:55;35.40;;;17.17;;
4053;SDS011;2042;47.956;9.222;2024-03-08T06:23:21;31.63;;;17.83;;
4053;SDS011;2042;47.956;9.222;2024-03-08T06:25:47;37.28;;;16.48;;
4053;SDS011;2042;47.956;9.222;2024-03-08T06:28:13;32.63;;;16.20;;
4053;SDS011;2042;47.956;9.222;2024-03-08T06:30:39;44.30;;;17.83;;
4053;SDS011;2042;47.956;9.222;2024-03-08T06:33:05;40.13;;;18.17;;
4053;SDS011;2042;47.956;9.222;2024-03-08T06:35:32;31.40;;;16.00;;
4053;SDS011;2042;47.956;9.222;2024-03-08T06:37:58;33.60;;;18.20;;
4053;SDS011;2042;47.956;9.222;2024-03-08T06:40:23;49.60;;;24.30;;
4053;SDS011;2042;47.956;9.222;2024-03-08T06:42:49;30.27;;;16.20;;
4053;SDS011;2042;47.956;9.222;2024-03-08T06:45:17;47.37;;;17.30;;
4053;SDS011;2042;47.956;9.222;2024-03-08T06:47:46;35.30;;;18.43;;
4053;SDS011;2042;47.956;9.222;2024-03-08T06:50:12;35.60;;;16.53;;
4053;SDS011;2042;47.956;9.222;2024-03-08T06:52:38;38.63;;;15.57;;
4053;SDS011;2042;47.956;9.222;2024-03-08T06:55:05;22.67;;;12.30;;
4053;SDS011;2042;47.956;9.222;2024-03-08T06:57:31;48.80;;;16.20;;
4053;SDS011;2042;47.956;9.222;2024-03-08T06:59:57;30.10;;;15.20;;
4053;SDS011;2042;47.956;9.222;2024-03-08T07:02:23;34.13;;;14.10;;
4053;SDS011;2042;47.956;9.222;2024-03-08T07:04:51;29.07;;;14.40;;
4053;SDS011;2042;47.956;9.222;2024-03-08T07:07:18;28.80;;;13.63;;
4053;SDS011;2042;47.956;9.222;2024-03-08T07:09:45;32.73;;;17.03;;
4053;SDS011;2042;47.956;9.222;2024-03-08T07:12:11;30.30;;;15.73;;
4053;SDS011;2042;47.956;9.222;2024-03-08T07:14:38;31.93;;;15.17;;
4053;SDS011;2042;47.956;9.222;2024-03-08T07:17:08;32.27;;;15.40;;
4053;SDS011;2042;47.956;9.222;2024-03-08T07:19:34;44.87;;;18.70;;
4053;SDS011;2042;47.956;9.222;2024-03-08T07:22:00;33.47;;;16.13;;
4053;SDS011;2042;47.956;9.222;2024-03-08T07:24:28;29.40;;;13.90;;
4053;SDS011;2042;47.956;9.222;2024-03-08T07:27:03;34.90;;;15.03;;
4053;SDS011;2042;47.956;9.222;2024-03-08T07:29:30;24.40;;;13.80;;
4053;SDS011;2042;47.956;9.222;2024-03-08T07:31:59;37.43;;;17.90;;
4053;SDS011;2042;47.956;9.222;2024-03-08T07:34:28;30.20;;;16.00;;
4053;SDS011;2042;47.956;9.222;2024-03-08T07:36:57;29.13;;;15.33;;
4053;SDS011;2042;47.956;9.222;2024-03-08T07:39:23;34.60;;;18.30;;
4053;SDS011;2042;47.956;9.222;2024-03-08T07:41:49;22.70;;;13.97;;
4053;SDS011;2042;47.956;9.222;2024-03-08T07:44:19;35.40;;;16.20;;
4053;SDS011;2042;47.956;9.222;2024-03-08T07:46:44;38.37;;;19.17;;
4053;SDS011;2042;47.956;9.222;2024-03-08T07:49:10;31.37;;;19.40;;
4053;SDS011;2042;47.956;9.222;2024-03-08T07:51:36;29.57;;;17.70;;
4053;SDS011;2042;47.956;9.222;2024-03-08T07:54:02;31.90;;;14.07;;
4053;SDS011;2042;47.956;9.222;2024-03-08T07:56:29;32.10;;;15.57;;
4053;SDS011;2042;47.956;9.222;2024-03-08T07:58:55;30.53;;;15.47;;
4053;SDS011;2042;47.956;9.222;2024-03-08T08:01:21;29.63;;;15.50;;
4053;SDS011;2042;47.956;9.222;2024-03-08T08:03:47;24.63;;;14.73;;
4053;SDS011;2042;47.956;9.222;2024-03-08T08:06:16;32.73;;;14.17;;
4053;SDS011;2042;47.956;9.222;2024-03-08T08:08:42;39.20;;;18.23;;
4053;SDS011;2042;47.956;9.222;2024-03-08T08:11:08;29.70;;;16.07;;
4053;SDS011;2042;47.956;9.222;2024-03-08T08:13:34;30.37;;;15.00;;
4053;SDS011;2042;47.956;9.222;2024-03-08T08:16:01;30.80;;;14.77;;
4053;SDS011;2042;47.956;9.222;2024-03-08T08:18:27;35.03;;;16.17;;
4053;SDS011;2042;47.956;9.222;2024-03-08T08:20:54;30.53;;;14.70;;
4053;SDS011;2042;47.956;9.222;2024-03-08T08:23:20;23.07;;;13.97;;
4053;SDS011;2042;47.956;9.222;2024-03-08T08:25:46;28.03;;;16.60;;
4053;SDS011;2042;47.956;9.222;2024-03-08T08:28:15;30.07;;;17.23;;
4053;SDS011;2042;47.956;9.222;2024-03-08T08:30:42;28.53;;;15.43;;
4053;SDS011;2042;47.956;9.222;2024-03-08T08:33:09;35.60;;;16.80;;
4053;SDS011;2042;47.956;9.222;2024-03-08T08:35:36;32.73;;;15.30;;
4053;SDS011;2042;47.956;9.222;2024-03-08T08:38:03;29.07;;;15.10;;
4053;SDS011;2042;47.956;9.222;2024-03-08T08:40:30;28.83;;;14.67;;
4053;SDS011;2042;47.956;9.222;2024-03-08T08:42:57;23.93;;;14.23;;
4053;SDS011;2042;47.956;9.222;2024-03-08T08:45:25;24.83;;;15.07;;
4053;SDS011;2042;47.956;9.222;2024-03-08T08:47:51;26.07;;;14.83;;
4053;SDS011;2042;47.956;9.222;2024-03-08T08:50:17;24.50;;;14.67;;
4053;SDS011;2042;47.956;9.222;2024-03-08T08:52:49;23.47;;;13.07;;
4053;SDS011;2042;47.956;9.222;2024-03-08T08:55:15;29.13;;;15.17;;
4053;SDS011;2042;47.956;9.222;2024-03-08T08:57:41;29.50;;;15.67;;
4053;SDS011;2042;47.956;9.222;2024-03-08T09:00:06;25.03;;;13.50;;
4053;SDS011;2042;47.956;9.222;2024-03-08T09:02:55;23.17;;;12.90;;
4053;SDS011;2042;47.956;9.222;2024-03-08T09:05:22;25.30;;;13.03;;
4053;SDS011;2042;47.956;9.222;2024-03-08T09:07:49;26.80;;;16.20;;
4053;SDS011;2042;47.956;9.222;2024-03-08T09:10:15;21.53;;;14.03;;
4053;SDS011;2042;47.956;9.222;2024-03-08T09:12:41;21.30;;;14.30;;
4053;SDS011;2042;47.956;9.222;2024-03-08T09:15:07;29.50;;;15.43;;
4053;SDS011;2042;47.956;9.222;2024-03-08T09:17:36;25.90;;;14.63;;
4053;SDS011;2042;47.956;9.222;2024-03-08T09:20:07;31.87;;;16.00;;
4053;SDS011;2042;47.956;9.222;2024-03-08T09:22:34;26.97;;;16.10;;
4053;SDS011;2042;47.956;9.222;2024-03-08T09:25:00;32.50;;;18.93;;
4053;SDS011;2042;47.956;9.222;2024-03-08T09:27:26;26.87;;;16.20;;
4053;SDS011;2042;47.956;9.222;2024-03-08T09:29:52;24.17;;;15.10;;
4053;SDS011;2042;47.956;9.222;2024-03-08T09:32:17;25.03;;;13.17;;
4053;SDS011;2042;47.956;9.222;2024-03-08T09:34:43;28.03;;;14.50;;
4053;SDS011;2042;47.956;9.222;2024-03-08T09:37:09;22.93;;;13.43;;
4053;SDS011;2042;47.956;9.222;2024-03-08T09:39:35;24.27;;;12.00;;
4053;SDS011;2042;47.956;9.222;2024-03-08T09:42:01;25.95;;;15.38;;
4053;SDS011;2042;47.956;9.222;2024-03-08T09:44:27;21.20;;;13.23;;
4053;SDS011;2042;47.956;9.222;2024-03-08T09:46:54;26.65;;;17.33;;
4053;SDS011;2042;47.956;9.222;2024-03-08T09:49:20;21.43;;;12.50;;
4053;SDS011;2042;47.956;9.222;2024-03-08T09:51:46;23.53;;;12.57;;
4053;SDS011;2042;47.956;9.222;2024-03-08T09:54:12;27.20;;;14.60;;
4053;SDS011;2042;47.956;9.222;2024-03-08T09:56:41;25.57;;;12.77;;
4053;SDS011;2042;47.956;9.222;2024-03-08T09:59:09;23.93;;;13.90;;
4053;SDS011;2042;47.956;9.222;2024-03-08T10:01:53;25.27;;;15.53;;
4053;SDS011;2042;47.956;9.222;2024-03-08T10:04:23;20.60;;;13.00;;
4053;SDS011;2042;47.956;9.222;2024-03-08T10:06:51;26.70;;;14.40;;
4053;SDS011;2042;47.956;9.222;2024-03-08T10:09:17;17.67;;;12.03;;
4053;SDS011;2042;47.956;9.222;2024-03-08T10:11:44;26.33;;;14.53;;
4053;SDS011;2042;47.956;9.222;2024-03-08T10:14:10;19.97;;;12.57;;
4053;SDS011;2042;47.956;9.222;2024-03-08T10:16:37;22.37;;;13.20;;
4053;SDS011;2042;47.956;9.222;2024-03-08T10:19:04;28.13;;;13.47;;
4053;SDS011;2042;47.956;9.222;2024-03-08T10:21:30;30.37;;;14.43;;
4053;SDS011;2042;47.956;9.222;2024-03-08T10:23:57;20.30;;;11.37;;
4053;SDS011;2042;47.956;9.222;2024-03-08T10:26:24;22.23;;;12.70;;
4053;SDS011;2042;47.956;9.222;2024-03-08T10:28:51;24.30;;;12.83;;
4053;SDS011;2042;47.956;9.222;2024-03-08T10:31:20;16.63;;;11.07;;
4053;SDS011;2042;47.956;9.222;2024-03-08T10:33:46;21.20;;;13.20;;
4053;SDS011;2042;47.956;9.222;2024-03-08T10:36:12;26.03;;;13.00;;
4053;SDS011;2042;47.956;9.222;2024-03-08T10:38:41;26.47;;;14.90;;
4053;SDS011;2042;47.956;9.222;2024-03-08T10:41:08;19.33;;;12.60;;
4053;SDS011;2042;47.956;9.222;2024-03-08T10:44:01;22.87;;;13.53;;
4053;SDS011;2042;47.956;9.222;2024-03-08T10:46:32;23.13;;;13.30;;
4053;SDS011;2042;47.956;9.222;2024-03-08T10:49:08;18.73;;;12.47;;
4053;SDS011;2042;47.956;9.222;2024-03-08T10:51:42;17.20;;;12.07;;
4053;SDS011;2042;47.956;9.222;2024-03-08T10:54:08;20.00;;;11.43;;
4053;SDS011;2042;47.956;9.222;2024-03-08T10:56:36;20.90;;;13.50;;
4053;SDS011;2042;47.956;9.222;2024-03-08T10:59:02;22.73;;;13.00;;
4053;SDS011;2042;47.956;9.222;2024-03-08T11:01:30;13.97;;;9.37;;
4053;SDS011;2042;47.956;9.222;2024-03-08T11:03:56;24.33;;;13.00;;
4053;SDS011;2042;47.956;9.222;2024-03-08T11:06:23;19.77;;;11.90;;
4053;SDS011;2042;47.956;9.222;2024-03-08T11:08:59;21.93;;;12.77;;
4053;SDS011;2042;47.956;9.222;2024-03-08T11:11:25;20.73;;;12.60;;
4053;SDS011;2042;47.956;9.222;2024-03-08T11:13:52;23.87;;;13.60;;
4053;SDS011;2042;47.956;9.222;2024-03-08T11:18:53;25.27;;;13.60;;
4053;SDS011;2042;47.956;9.222;2024-03-08T11:21:19;22.93;;;13.00;;
4053;SDS011;2042;47.956;9.222;2024-03-08T11:24:01;24.57;;;14.30;;
4053;SDS011;2042;47.956;9.222;2024-03-08T11:26:30;21.70;;;13.80;;
4053;SDS011;2042;47.956;9.222;2024-03-08T11:29:32;21.17;;;12.20;;
4053;SDS011;2042;47.956;9.222;2024-03-08T11:32:10;18.80;;;11.80;;
4053;SDS011;2042;47.956;9.222;2024-03-08T11:34:37;19.70;;;11.90;;
4053;SDS011;2042;47.956;9.222;2024-03-08T11:37:14;18.87;;;12.20;;
4053;SDS011;2042;47.956;9.222;2024-03-08T11:39:49;24.03;;;13.20;;
4053;SDS011;2042;47.956;9.222;2024-03-08T11:42:23;21.47;;;13.07;;
4053;SDS011;2042;47.956;9.222;2024-03-08T11:44:51;19.60;;;11.90;;
4053;SDS011;2042;47.956;9.222;2024-03-08T11:47:17;18.90;;;12.00;;
4053;SDS011;2042;47.956;9.222;2024-03-08T11:49:44;22.80;;;14.30;;
4053;SDS011;2042;47.956;9.222;2024-03-08T11:52:13;20.50;;;13.80;;
4053;SDS011;2042;47.956;9.222;2024-03-08T11:54:40;18.50;;;12.40;;
4053;SDS011;2042;47.956;9.222;2024-03-08T11:57:06;19.47;;;11.60;;
4053;SDS011;2042;47.956;9.222;2024-03-08T11:59:32;17.10;;;11.67;;
4053;SDS011;2042;47.956;9.222;2024-03-08T12:02:01;20.57;;;13.60;;
4053;SDS011;2042;47.956;9.222;2024-03-08T12:04:31;16.40;;;11.03;;
4053;SDS011;2042;47.956;9.222;2024-03-08T12:07:00;17.03;;;11.80;;
4053;SDS011;2042;47.956;9.222;2024-03-08T12:09:27;19.33;;;12.30;;
4053;SDS011;2042;47.956;9.222;2024-03-08T12:11:53;18.40;;;10.90;;
4053;SDS011;2042;47.956;9.222;2024-03-08T12:14:19;22.90;;;13.87;;
4053;SDS011;2042;47.956;9.222;2024-03-08T12:16:45;18.40;;;11.07;;
4053;SDS011;2042;47.956;9.222;2024-03-08T12:19:11;16.13;;;10.07;;
4053;SDS011;2042;47.956;9.222;2024-03-08T12:21:37;18.30;;;10.20;;
4053;SDS011;2042;47.956;9.222;2024-03-08T12:24:10;16.67;;;11.43;;
4053;SDS011;2042;47.956;9.222;2024-03-08T12:26:39;15.63;;;10.53;;
4053;SDS011;2042;47.956;9.222;2024-03-08T12:32:08;16.87;;;9.70;;
4053;SDS011;2042;47.956;9.222;2024-03-08T12:34:36;17.23;;;10.93;;
4053;SDS011;2042;47.956;9.222;2024-03-08T12:37:02;15.73;;;10.50;;
4053;SDS011;2042;47.956;9.222;2024-03-08T12:39:27;15.40;;;10.53;;
4053;SDS011;2042;47.956;9.222;2024-03-08T12:41:55;17.53;;;11.00;;
4053;SDS011;2042;47.956;9.222;2024-03-08T12:44:24;17.40;;;10.83;;
4053;SDS011;2042;47.956;9.222;2024-03-08T12:46:51;15.63;;;9.93;;
4053;SDS011;2042;47.956;9.222;2024-03-08T12:49:18;14.90;;;9.63;;
4053;SDS011;2042;47.956;9.222;2024-03-08T12:51:47;14.90;;;10.30;;
4053;SDS011;2042;47.956;9.222;2024-03-08T12:54:13;17.13;;;10.10;;
4053;SDS011;2042;47.956;9.222;2024-03-08T12:56:39;18.73;;;13.33;;
4053;SDS011;2042;47.956;9.222;2024-03-08T12:59:05;13.70;;;9.73;;
4053;SDS011;2042;47.956;9.222;2024-03-08T13:01:35;14.70;;;10.33;;
4053;SDS011;2042;47.956;9.222;2024-03-08T13:04:02;14.97;;;9.30;;
4053;SDS011;2042;47.956;9.222;2024-03-08T13:06:29;18.43;;;11.03;;
4053;SDS011;2042;47.956;9.222;2024-03-08T13:08:56;16.20;;;9.93;;
4053;SDS011;2042;47.956;9.222;2024-03-08T13:11:23;16.60;;;10.60;;
4053;SDS011;2042;47.956;9.222;2024-03-08T13:13:49;15.40;;;10.07;;
4053;SDS011;2042;47.956;9.222;2024-03-08T13:16:15;14.00;;;9.93;;
4053;SDS011;2042;47.956;9.222;2024-03-08T13:18:42;14.33;;;9.30;;
4053;SDS011;2042;47.956;9.222;2024-03-08T13:21:08;12.97;;;9.67;;
4053;SDS011;2042;47.956;9.222;2024-03-08T13:23:36;13.40;;;9.67;;
4053;SDS011;2042;47.956;9.222;2024-03-08T13:26:08;14.87;;;9.27;;
4053;SDS011;2042;47.956;9.222;2024-03-08T13:28:40;15.03;;;10.63;;
4053;SDS011;2042;47.956;9.222;2024-03-08T13:31:13;13.00;;;9.93;;
4053;SDS011;2042;47.956;9.222;2024-03-08T13:33:40;10.80;;;8.50;;
4053;SDS011;2042;47.956;9.222;2024-03-08T13:36:07;13.83;;;9.60;;
4053;SDS011;2042;47.956;9.222;2024-03-08T13:38:46;11.73;;;8.00;;
4053;SDS011;2042;47.956;9.222;2024-03-08T13:41:13;15.60;;;10.20;;
4053;SDS011;2042;47.956;9.222;2024-03-08T13:43:43;17.13;;;11.73;;
4053;SDS011;2042;47.956;9.222;2024-03-08T13:46:12;14.10;;;10.40;;
4053;SDS011;2042;47.956;9.222;2024-03-08T13:48:38;16.70;;;10.13;;
4053;SDS011;2042;47.956;9.222;2024-03-08T13:51:07;15.63;;;10.73;;
4053;SDS011;2042;47.956;9.222;2024-03-08T13:53:35;15.73;;;10.00;;
4053;SDS011;2042;47.956;9.222;2024-03-08T13:56:04;16.73;;;10.03;;
4053;SDS011;2042;47.956;9.222;2024-03-08T13:58:30;14.13;;;10.00;;
4053;SDS011;2042;47.956;9.222;2024-03-08T14:00:56;11.43;;;8.60;;
4053;SDS011;2042;47.956;9.222;2024-03-08T14:03:22;15.70;;;10.13;;
4053;SDS011;2042;47.956;9.222;2024-03-08T14:05:49;12.00;;;8.67;;
4053;SDS011;2042;47.956;9.222;2024-03-08T14:08:15;13.80;;;10.20;;
4053;SDS011;2042;47.956;9.222;2024-03-08T14:10:42;18.00;;;11.20;;
4053;SDS011;2042;47.956;9.222;2024-03-08T14:13:11;15.00;;;10.60;;
4053;SDS011;2042;47.956;9.222;2024-03-08T14:15:37;15.53;;;10.70;;
4053;SDS011;2042;47.956;9.222;2024-03-08T14:18:07;11.63;;;8.87;;
4053;SDS011;2042;47.956;9.222;2024-03-08T14:20:33;18.50;;;10.93;;
4053;SDS011;2042;47.956;9.222;2024-03-08T14:22:59;12.53;;;9.60;;
4053;SDS011;2042;47.956;9.222;2024-03-08T14:25:24;13.23;;;8.80;;
4053;SDS011;2042;47.956;9.222;2024-03-08T14:27:51;13.10;;;9.30;;
4053;SDS011;2042;47.956;9.222;2024-03-08T14:30:26;11.03;;;8.07;;
4053;SDS011;2042;47.956;9.222;2024-03-08T14:33:03;14.40;;;9.57;;
4053;SDS011;2042;47.956;9.222;2024-03-08T14:35:36;12.83;;;9.60;;
4053;SDS011;2042;47.956;9.222;2024-03-08T14:38:02;12.73;;;10.00;;
4053;SDS011;2042;47.956;9.222;2024-03-08T14:40:28;14.00;;;9.73;;
4053;SDS011;2042;47.956;9.222;2024-03-08T14:42:55;11.40;;;8.20;;
4053;SDS011;2042;47.956;9.222;2024-03-08T14:45:21;15.60;;;10.20;;
4053;SDS011;2042;47.956;9.222;2024-03-08T14:47:49;17.73;;;11.13;;
4053;SDS011;2042;47.956;9.222;2024-03-08T14:50:19;13.37;;;9.57;;
4053;SDS011;2042;47.956;9.222;2024-03-08T14:52:46;15.10;;;9.77;;
4053;SDS011;2042;47.956;9.222;2024-03-08T14:55:15;18.53;;;10.73;;
4053;SDS011;2042;47.956;9.222;2024-03-08T14:57:41;14.37;;;9.17;;
4053;SDS011;2042;47.956;9.222;2024-03-08T15:00:10;14.23;;;10.80;;